Time,TemperatureF,DewpointF,PressureIn,WindDirection,WindDirectionDegrees,WindSpeedMPH,WindSpeedGustMPH,Humidity,HourlyPrecipIn,Conditions,Clouds,dailyrainin,SolarRadiationWatts/m^2,SoftwareType,DateUTC
2013-01-23 00:03:00,6.0,-7.0,-100.00,WSW,250,7.0,16.0,54,0.00,,,0.00,0.000000,,2013-01-23 05:03:00,
2013-01-23 00:12:00,6.0,-7.0,-100.00,WSW,250,7.0,16.0,54,0.00,,,0.00,0.000000,,2013-01-23 05:12:00,
2013-01-23 00:23:00,6.0,-7.0,-100.00,WSW,250,7.0,16.0,54,0.00,,,0.00,0.000000,,2013-01-23 05:23:00,
2013-01-23 00:53:00,5.0,-8.0,-100.00,WSW,249,6.0,11.0,55,0.00,,,0.00,0.000000,,2013-01-23 05:53:00,
2013-01-23 01:03:00,5.0,-8.0,-100.00,WSW,249,6.0,11.0,55,0.00,,,0.00,0.000000,,2013-01-23 06:03:00,
2013-01-23 01:13:00,5.0,-8.0,-100.00,WSW,249,6.0,11.0,55,0.00,,,0.00,0.000000,,2013-01-23 06:13:00,
2013-01-23 01:23:00,5.0,-8.0,-100.00,WSW,249,6.0,11.0,55,0.00,,,0.00,0.000000,,2013-01-23 06:23:00,
2013-01-23 01:53:00,5.0,-7.0,-100.00,West,261,7.0,12.0,56,0.00,,,0.00,0.000000,,2013-01-23 06:53:00,
2013-01-23 02:02:00,5.0,-7.0,-100.00,West,261,7.0,12.0,56,0.00,,,0.00,0.000000,,2013-01-23 07:02:00,
2013-01-23 02:13:00,5.0,-7.0,-100.00,West,261,7.0,12.0,56,0.00,,,0.00,0.000000,,2013-01-23 07:13:00,
2013-01-23 02:22:00,5.0,-7.0,-100.00,West,261,7.0,12.0,56,0.00,,,0.00,0.000000,,2013-01-23 07:22:00,
2013-01-23 02:53:00,6.0,-6.0,-100.00,West,270,7.0,11.0,58,0.00,,,0.00,0.000000,,2013-01-23 07:53:00,
2013-01-23 03:02:00,6.0,-6.0,-100.00,West,270,7.0,11.0,58,0.00,,,0.00,0.000000,,2013-01-23 08:02:00,
2013-01-23 03:13:00,6.0,-6.0,-100.00,West,270,7.0,11.0,58,0.00,,,0.00,0.000000,,2013-01-23 08:13:00,
2013-01-23 03:23:00,6.0,-6.0,-100.00,West,270,7.0,11.0,58,0.00,,,0.00,0.000000,,2013-01-23 08:23:00,
2013-01-23 03:53:00,7.0,-4.0,-100.00,West,276,8.0,14.0,59,0.00,,,0.00,0.000000,,2013-01-23 08:53:00,
2013-01-23 04:03:00,7.0,-4.0,-100.00,West,276,8.0,14.0,59,0.00,,,0.00,0.000000,,2013-01-23 09:03:00,
2013-01-23 04:12:00,7.0,-4.0,-100.00,West,276,8.0,14.0,59,0.00,,,0.00,0.000000,,2013-01-23 09:12:00,
2013-01-23 04:22:00,7.0,-4.0,-100.00,West,276,8.0,14.0,59,0.00,,,0.00,0.000000,,2013-01-23 09:22:00,
2013-01-23 04:53:00,7.0,-3.0,-100.00,West,281,10.0,17.0,63,0.00,,,0.00,0.000000,,2013-01-23 09:53:00,
2013-01-23 05:03:00,7.0,-3.0,-100.00,West,281,10.0,17.0,63,0.00,,,0.00,0.000000,,2013-01-23 10:03:00,
2013-01-23 05:12:00,7.0,-3.0,-100.00,West,281,10.0,17.0,63,0.00,,,0.00,0.000000,,2013-01-23 10:12:00,
2013-01-23 05:23:00,7.0,-3.0,-100.00,West,281,10.0,17.0,63,0.00,,,0.00,0.000000,,2013-01-23 10:23:00,
2013-01-23 05:53:00,7.0,2.0,-100.00,West,280,7.0,17.0,79,0.00,,,0.00,0.000000,,2013-01-23 10:53:00,
2013-01-23 06:03:00,7.0,2.0,-100.00,West,280,7.0,17.0,79,0.00,,,0.00,0.000000,,2013-01-23 11:03:00,
2013-01-23 06:12:00,7.0,2.0,-100.00,West,280,7.0,17.0,79,0.00,,,0.00,0.000000,,2013-01-23 11:12:00,
2013-01-23 06:23:00,7.0,2.0,-100.00,West,280,7.0,17.0,79,0.00,,,0.00,0.000000,,2013-01-23 11:23:00,
2013-01-23 06:53:00,7.0,2.0,-100.00,West,277,7.0,14.0,80,0.00,,,0.00,0.000000,,2013-01-23 11:53:00,
2013-01-23 07:03:00,7.0,2.0,-100.00,West,277,7.0,14.0,80,0.00,,,0.00,0.000000,,2013-01-23 12:03:00,
2013-01-23 07:13:00,7.0,2.0,-100.00,West,277,7.0,14.0,80,0.00,,,0.00,0.000000,,2013-01-23 12:13:00,
2013-01-23 07:23:00,7.0,2.0,-100.00,West,277,7.0,14.0,80,0.00,,,0.00,0.000000,,2013-01-23 12:23:00,
2013-01-23 07:53:00,6.0,1.0,-100.00,West,265,5.0,9.0,80,0.00,,,0.00,0.000000,,2013-01-23 12:53:00,
2013-01-23 08:04:00,6.0,1.0,-100.00,West,265,5.0,9.0,80,0.00,,,0.00,0.000000,,2013-01-23 13:04:00,
2013-01-23 08:13:00,6.0,1.0,-100.00,West,265,5.0,9.0,80,0.00,,,0.00,0.000000,,2013-01-23 13:13:00,
2013-01-23 08:23:00,6.0,1.0,-100.00,West,265,5.0,9.0,80,0.00,,,0.00,0.000000,,2013-01-23 13:23:00,
2013-01-23 08:53:00,5.0,0.0,-100.00,West,266,5.0,8.0,78,0.00,,,0.00,21.000000,,2013-01-23 13:53:00,
2013-01-23 09:03:00,5.0,0.0,-100.00,West,266,5.0,8.0,78,0.00,,,0.00,21.000000,,2013-01-23 14:03:00,
2013-01-23 09:12:00,5.0,0.0,-100.00,West,266,5.0,8.0,78,0.00,,,0.00,21.000000,,2013-01-23 14:12:00,
2013-01-23 09:23:00,5.0,0.0,-100.00,West,266,5.0,8.0,78,0.00,,,0.00,21.000000,,2013-01-23 14:23:00,
2013-01-23 09:53:00,8.0,1.0,-100.00,WNW,286,6.0,9.0,74,0.00,,,0.00,135.000000,,2013-01-23 14:53:00,
2013-01-23 10:03:00,8.0,1.0,-100.00,WNW,286,6.0,9.0,74,0.00,,,0.00,135.000000,,2013-01-23 15:03:00,
2013-01-23 10:13:00,8.0,1.0,-100.00,WNW,286,6.0,9.0,74,0.00,,,0.00,135.000000,,2013-01-23 15:13:00,
2013-01-23 10:23:00,8.0,1.0,-100.00,WNW,286,6.0,9.0,74,0.00,,,0.00,135.000000,,2013-01-23 15:23:00,
2013-01-23 10:53:00,10.0,2.0,-100.00,WNW,293,5.0,11.0,69,0.00,,,0.00,271.000000,,2013-01-23 15:53:00,
2013-01-23 11:03:00,10.0,2.0,-100.00,WNW,293,5.0,11.0,69,0.00,,,0.00,271.000000,,2013-01-23 16:03:00,
2013-01-23 11:12:00,10.0,2.0,-100.00,WNW,293,5.0,11.0,69,0.00,,,0.00,271.000000,,2013-01-23 16:12:00,
2013-01-23 11:23:00,10.0,2.0,-100.00,WNW,293,5.0,11.0,69,0.00,,,0.00,271.000000,,2013-01-23 16:23:00,
2013-01-23 11:53:00,12.0,0.0,-100.00,WNW,285,6.0,11.0,59,0.00,,,0.00,175.000000,,2013-01-23 16:53:00,
2013-01-23 12:03:00,12.0,0.0,-100.00,WNW,285,6.0,11.0,59,0.00,,,0.00,175.000000,,2013-01-23 17:03:00,
2013-01-23 12:12:00,12.0,0.0,-100.00,WNW,285,6.0,11.0,59,0.00,,,0.00,175.000000,,2013-01-23 17:12:00,
2013-01-23 12:23:00,12.0,0.0,-100.00,WNW,285,6.0,11.0,59,0.00,,,0.00,175.000000,,2013-01-23 17:23:00,
2013-01-23 12:53:00,13.0,-2.0,-100.00,WNW,288,8.0,14.0,50,0.00,,,0.00,271.000000,,2013-01-23 17:53:00,
2013-01-23 13:04:00,13.0,-2.0,-100.00,WNW,288,8.0,14.0,50,0.00,,,0.00,271.000000,,2013-01-23 18:04:00,
2013-01-23 13:13:00,13.0,-2.0,-100.00,WNW,288,8.0,14.0,50,0.00,,,0.00,271.000000,,2013-01-23 18:13:00,
2013-01-23 13:24:00,13.0,-2.0,-100.00,WNW,288,8.0,14.0,50,0.00,,,0.00,271.000000,,2013-01-23 18:24:00,
2013-01-23 13:53:00,14.0,-2.0,-100.00,WSW,240,6.0,13.0,48,0.00,,,0.00,265.000000,,2013-01-23 18:53:00,
2013-01-23 14:03:00,14.0,-2.0,-100.00,WSW,240,6.0,13.0,48,0.00,,,0.00,265.000000,,2013-01-23 19:03:00,
2013-01-23 14:13:00,14.0,-2.0,-100.00,WSW,240,6.0,13.0,48,0.00,,,0.00,265.000000,,2013-01-23 19:13:00,
2013-01-23 14:23:00,14.0,-2.0,-100.00,WSW,240,6.0,13.0,48,0.00,,,0.00,265.000000,,2013-01-23 19:23:00,
2013-01-23 14:53:00,14.0,-4.0,-100.00,West,261,7.0,14.0,43,0.00,,,0.00,192.000000,,2013-01-23 19:53:00,
2013-01-23 15:03:00,14.0,-4.0,-100.00,West,261,7.0,14.0,43,0.00,,,0.00,192.000000,,2013-01-23 20:03:00,
2013-01-23 15:13:00,14.0,-4.0,-100.00,West,261,7.0,14.0,43,0.00,,,0.00,192.000000,,2013-01-23 20:13:00,
2013-01-23 15:23:00,14.0,-4.0,-100.00,West,261,7.0,14.0,43,0.00,,,0.00,192.000000,,2013-01-23 20:23:00,
2013-01-23 15:54:00,14.0,-5.0,-100.00,West,265,7.0,13.0,42,0.00,,,0.00,161.000000,,2013-01-23 20:54:00,
2013-01-23 16:03:00,14.0,-5.0,-100.00,West,265,7.0,13.0,42,0.00,,,0.00,161.000000,,2013-01-23 21:03:00,
2013-01-23 16:12:00,14.0,-5.0,-100.00,West,265,7.0,13.0,42,0.00,,,0.00,161.000000,,2013-01-23 21:12:00,
2013-01-23 16:23:00,14.0,-5.0,-100.00,West,265,7.0,13.0,42,0.00,,,0.00,161.000000,,2013-01-23 21:23:00,
2013-01-23 16:53:00,13.0,1.0,-100.00,SSW,213,4.0,11.0,57,0.00,,,0.00,96.000000,,2013-01-23 21:53:00,
2013-01-23 17:03:00,13.0,1.0,-100.00,SSW,213,4.0,11.0,57,0.00,,,0.00,96.000000,,2013-01-23 22:03:00,
2013-01-23 17:13:00,13.0,1.0,-100.00,SSW,213,4.0,11.0,57,0.00,,,0.00,96.000000,,2013-01-23 22:13:00,
2013-01-23 17:23:00,13.0,1.0,-100.00,SSW,213,4.0,11.0,57,0.00,,,0.00,96.000000,,2013-01-23 22:23:00,
2013-01-23 18:03:00,12.0,4.0,-100.00,SW,216,3.0,9.0,68,0.00,,,0.00,27.000000,,2013-01-23 23:03:00,
2013-01-23 18:13:00,12.0,4.0,-100.00,SW,216,3.0,9.0,68,0.00,,,0.00,27.000000,,2013-01-23 23:13:00,
2013-01-23 18:23:00,12.0,4.0,-100.00,SW,216,3.0,9.0,68,0.00,,,0.00,27.000000,,2013-01-23 23:23:00,
2013-01-23 18:53:00,11.0,5.0,-100.00,SW,217,1.0,7.0,75,0.00,,,0.00,0.000000,,2013-01-23 23:53:00,
2013-01-23 19:03:00,11.0,5.0,-100.00,SW,217,1.0,7.0,75,0.00,,,0.00,0.000000,,2013-01-24 00:03:00,
2013-01-23 19:12:00,11.0,5.0,-100.00,SW,217,1.0,7.0,75,0.00,,,0.00,0.000000,,2013-01-24 00:12:00,
2013-01-23 19:22:00,11.0,5.0,-100.00,SW,217,1.0,7.0,75,0.00,,,0.00,0.000000,,2013-01-24 00:22:00,
2013-01-23 19:53:00,11.0,5.0,-100.00,SSW,211,2.0,6.0,75,0.00,,,0.00,0.000000,,2013-01-24 00:53:00,
2013-01-23 20:03:00,11.0,5.0,-100.00,SSW,211,2.0,6.0,75,0.00,,,0.00,0.000000,,2013-01-24 01:03:00,
2013-01-23 20:12:00,11.0,5.0,-100.00,SSW,211,2.0,6.0,75,0.00,,,0.00,0.000000,,2013-01-24 01:12:00,
2013-01-23 20:23:00,11.0,5.0,-100.00,SSW,211,2.0,6.0,75,0.00,,,0.00,0.000000,,2013-01-24 01:23:00,
2013-01-23 20:53:00,9.0,3.0,-100.00,SSW,213,2.0,4.0,76,0.00,,,0.00,0.000000,,2013-01-24 01:53:00,
2013-01-23 21:03:00,9.0,3.0,-100.00,SSW,213,2.0,4.0,76,0.00,,,0.00,0.000000,,2013-01-24 02:03:00,
2013-01-23 21:12:00,9.0,3.0,-100.00,SSW,213,2.0,4.0,76,0.00,,,0.00,0.000000,,2013-01-24 02:12:00,
2013-01-23 21:23:00,9.0,3.0,-100.00,SSW,213,2.0,4.0,76,0.00,,,0.00,0.000000,,2013-01-24 02:23:00,
2013-01-23 22:03:00,10.0,1.0,-100.00,WSW,248,3.0,5.0,66,0.00,,,0.00,0.000000,,2013-01-24 03:03:00,
2013-01-23 22:12:00,10.0,1.0,-100.00,WSW,248,3.0,5.0,66,0.00,,,0.00,0.000000,,2013-01-24 03:12:00,
2013-01-23 22:22:00,10.0,1.0,-100.00,WSW,248,3.0,5.0,66,0.00,,,0.00,0.000000,,2013-01-24 03:22:00,
2013-01-23 22:53:00,11.0,0.0,-100.00,SW,223,4.0,6.0,61,0.00,,,0.00,0.000000,,2013-01-24 03:53:00,
2013-01-23 23:03:00,11.0,0.0,-100.00,SW,223,4.0,6.0,61,0.00,,,0.00,0.000000,,2013-01-24 04:03:00,
2013-01-23 23:12:00,11.0,0.0,-100.00,SW,223,4.0,6.0,61,0.00,,,0.00,0.000000,,2013-01-24 04:12:00,
2013-01-23 23:22:00,11.0,0.0,-100.00,SW,223,4.0,6.0,61,0.00,,,0.00,0.000000,,2013-01-24 04:22:00,
2013-01-23 23:53:00,12.0,0.0,-100.00,SW,235,6.0,10.0,58,0.00,,,0.00,0.000000,,2013-01-24 04:53:00,